Time;durP1;ratioP1;P1;durP2;ratioP2;P2;SDS_P1;SDS_P2;PMS_P1;PMS_P2;Temp;Humidity;BMP_temperature;BMP_pressure;BME280_temperature;BME280_humidity;BME280_pressure;Samples;Min_cycle;Max_cycle;Signal;HPM_P1;HPM_P2
2023/01/13 00:01:41;;;;;;;10.32;5.80;;;;;;;2.30;75.11;99983.47;4977714;28;20026;-93
2023/01/13 00:04:08;;;;;;;7.85;4.85;;;;;;;2.40;75.51;99976.75;4970821;28;20023;-93
2023/01/13 00:06:33;;;;;;;8.38;5.13;;;;;;;2.47;75.54;99982.09;4953353;28;20409;-93
2023/01/13 00:08:59;;;;;;;10.05;5.88;;;;;;;2.26;76.45;99972.41;4947504;28;20030;-94
2023/01/13 00:11:25;;;;;;;12.65;5.20;;;;;;;2.21;76.39;99988.94;4945414;28;20022;-93
2023/01/13 00:13:50;;;;;;;8.20;5.53;;;;;;;2.24;76.75;99987.72;4962239;28;20022;-93
2023/01/13 00:16:16;;;;;;;11.02;5.53;;;;;;;2.17;76.26;99993.03;4983850;28;20555;-93
2023/01/13 00:18:42;;;;;;;11.30;6.50;;;;;;;2.37;76.09;100009.06;4966176;28;20033;-93
2023/01/13 00:21:11;;;;;;;10.07;5.40;;;;;;;2.37;76.60;99993.09;4953997;28;20030;-92
2023/01/13 00:23:38;;;;;;;8.73;5.07;;;;;;;2.49;75.05;99993.34;4943037;28;20023;-93
2023/01/13 00:26:06;;;;;;;8.75;4.53;;;;;;;2.58;75.99;100009.94;4948617;28;20084;-91
2023/01/13 00:28:37;;;;;;;5.63;3.80;;;;;;;2.64;74.54;99990.53;4944897;28;20061;-92
2023/01/13 00:31:07;;;;;;;9.43;4.32;;;;;;;2.88;72.64;100013.06;4972822;28;20504;-93
2023/01/13 00:33:33;;;;;;;7.25;4.80;;;;;;;2.75;73.04;99992.59;4963494;28;20507;-93
2023/01/13 00:35:59;;;;;;;5.82;4.10;;;;;;;2.50;76.69;99989.66;4990671;28;20018;-93
2023/01/13 00:38:27;;;;;;;7.53;4.57;;;;;;;2.38;76.63;99986.75;4976981;28;20087;-93
2023/01/13 00:40:57;;;;;;;8.23;4.72;;;;;;;2.47;76.80;99994.56;4958153;28;20037;-93
2023/01/13 00:43:23;;;;;;;6.90;4.85;;;;;;;2.47;76.99;99999.88;4973498;28;20507;-93
2023/01/13 00:45:51;;;;;;;8.50;4.97;;;;;;;2.46;76.88;99979.66;4967182;28;20033;-93
2023/01/13 00:48:18;;;;;;;9.40;4.57;;;;;;;2.40;77.11;99979.41;4993889;28;20022;-93
2023/01/13 00:50:44;;;;;;;9.10;5.55;;;;;;;2.43;77.45;100012.75;5004721;28;20025;-93
2023/01/13 00:53:09;;;;;;;9.02;5.15;;;;;;;2.32;77.69;99978.78;4973346;28;20026;-92
2023/01/13 00:55:35;;;;;;;6.85;5.35;;;;;;;2.33;76.99;99975.13;4970809;28;20025;-93
2023/01/13 00:58:02;;;;;;;8.57;4.75;;;;;;;2.25;77.49;99993.88;4974794;28;20038;-93
2023/01/13 01:00:34;;;;;;;8.38;4.97;;;;;;;2.38;77.95;99988.59;4977454;28;20125;-93
2023/01/13 01:02:59;;;;;;;7.03;5.13;;;;;;;2.24;77.76;99979.75;4957995;28;20034;-93
2023/01/13 01:05:25;;;;;;;9.35;5.18;;;;;;;2.39;78.20;100003.53;4937565;28;20058;-93
2023/01/13 01:07:50;;;;;;;9.40;5.05;;;;;;;2.31;78.15;99993.91;4969881;28;20022;-92
2023/01/13 01:10:16;;;;;;;8.93;4.80;;;;;;;2.36;78.09;99994.13;4962329;28;20500;-93
2023/01/13 01:12:41;;;;;;;7.05;4.05;;;;;;;2.23;78.20;99968.31;4957899;28;20023;-91
2023/01/13 01:15:08;;;;;;;7.22;4.40;;;;;;;2.34;78.15;99990.03;4970423;28;20393;-92
2023/01/13 01:17:37;;;;;;;5.88;3.88;;;;;;;2.31;77.91;99970.00;4959594;28;20037;-93
2023/01/13 01:20:03;;;;;;;7.03;4.00;;;;;;;2.49;77.51;99987.19;4976958;28;20504;-92
2023/01/13 01:22:29;;;;;;;6.40;4.00;;;;;;;2.37;77.47;99979.00;4952697;28;20053;-92
2023/01/13 01:24:54;;;;;;;6.82;4.43;;;;;;;2.47;76.83;99982.09;4945170;28;20026;-92
2023/01/13 01:27:20;;;;;;;7.50;4.07;;;;;;;2.40;77.18;99958.16;4949819;28;20029;-92
2023/01/13 01:29:45;;;;;;;6.50;4.43;;;;;;;2.50;76.87;99959.63;4970763;28;20029;-93
2023/01/13 01:32:11;;;;;;;8.90;5.28;;;;;;;2.46;76.56;99951.22;4957785;28;20022;-93
2023/01/13 01:34:38;;;;;;;8.20;4.32;;;;;;;2.73;75.69;99968.03;4949001;28;20505;-92
2023/01/13 01:37:03;;;;;;;9.45;4.10;;;;;;;2.74;76.01;99960.88;4958095;28;20104;-92
2023/01/13 01:39:29;;;;;;;5.88;4.13;;;;;;;2.55;76.02;99942.06;4980190;28;20061;-93
2023/01/13 01:44:42;;;;;;;6.03;4.20;;;;;;;2.63;76.48;99972.91;4996695;28;20092;-93
2023/01/13 01:47:12;;;;;;;9.82;5.18;;;;;;;2.56;76.59;99972.09;4999756;28;20408;-92
2023/01/13 01:49:38;;;;;;;5.47;3.55;;;;;;;2.40;77.81;99960.00;4983437;28;20027;-92
2023/01/13 01:52:32;;;;;;;7.47;4.63;;;;;;;2.56;77.73;99972.09;4981890;28;20060;-92
2023/01/13 01:55:01;;;;;;;7.72;4.38;;;;;;;2.39;77.34;99966.34;4948576;28;20059;-92
2023/01/13 01:57:34;;;;;;;6.82;4.43;;;;;;;2.48;77.02;99969.63;4947051;28;20033;-92
2023/01/13 02:00:00;;;;;;;7.00;4.40;;;;;;;2.42;77.19;99964.09;4972268;28;20073;-92
2023/01/13 02:02:27;;;;;;;6.88;4.20;;;;;;;2.18;77.86;99959.31;4965201;28;20026;-93
2023/01/13 02:04:52;;;;;;;5.18;3.67;;;;;;;2.40;78.10;99979.41;4961256;28;20050;-92
2023/01/13 02:07:23;;;;;;;5.95;3.85;;;;;;;2.40;77.02;99952.84;4979801;28;20077;-92
2023/01/13 02:09:48;;;;;;;7.00;4.18;;;;;;;2.38;76.94;99959.38;4960535;28;20031;-91
2023/01/13 02:12:30;;;;;;;5.82;3.80;;;;;;;2.49;76.86;99964.13;4996476;28;20051;-93
2023/01/13 02:15:25;;;;;;;5.72;3.75;;;;;;;2.62;75.34;99961.47;4986387;28;20029;-92
2023/01/13 02:18:18;;;;;;;6.55;4.15;;;;;;;2.65;75.93;99975.38;4963138;28;20576;-93
2023/01/13 02:21:43;;;;;;;6.40;4.03;;;;;;;2.42;76.54;99964.09;4978543;28;20575;-92
2023/01/13 02:27:43;;;;;;;5.65;3.90;;;;;;;2.45;77.15;99981.50;5007872;28;20040;-92
2023/01/13 02:33:28;;;;;;;6.47;4.00;;;;;;;2.40;76.73;99982.06;4983564;28;20054;-91
2023/01/13 02:36:01;;;;;;;6.63;4.00;;;;;;;2.35;76.18;99968.56;4981825;28;20105;-91
2023/01/13 02:38:36;;;;;;;8.23;3.80;;;;;;;2.28;77.04;99954.44;4958846;28;20045;-92
2023/01/13 02:44:09;;;;;;;6.32;4.07;;;;;;;2.32;77.79;99973.47;4988397;28;20042;-93
2023/01/13 02:47:05;;;;;;;8.32;3.92;;;;;;;2.47;77.81;99990.09;4963039;28;20034;-92
2023/01/13 02:49:39;;;;;;;5.68;3.70;;;;;;;2.46;77.80;99980.44;5006414;28;20033;-93
2023/01/13 02:52:18;;;;;;;6.95;3.78;;;;;;;2.49;77.74;99977.41;4958105;28;20073;-92
2023/01/13 02:54:47;;;;;;;6.20;3.63;;;;;;;2.45;77.00;99959.38;4947397;28;20022;-92
2023/01/13 02:57:13;;;;;;;8.32;3.33;;;;;;;2.44;77.42;99961.22;4962557;28;20037;-93
2023/01/13 02:59:39;;;;;;;6.45;3.88;;;;;;;2.53;77.13;99973.34;4972211;28;20521;-92
2023/01/13 03:02:04;;;;;;;5.57;3.40;;;;;;;2.48;76.97;99962.47;4975227;28;20030;-92
2023/01/13 03:04:50;;;;;;;6.53;4.03;;;;;;;2.43;77.03;99962.28;4962943;28;20034;-92
2023/01/13 03:07:41;;;;;;;7.07;3.70;;;;;;;2.52;77.08;99978.84;4959170;28;20064;-93
2023/01/13 03:10:13;;;;;;;5.45;3.30;;;;;;;2.59;77.01;99980.50;4957255;28;20125;-93
2023/01/13 03:13:03;;;;;;;6.20;3.78;;;;;;;2.53;77.60;99981.31;4981677;28;20034;-92
2023/01/13 03:15:41;;;;;;;5.82;3.90;;;;;;;2.65;77.19;99986.03;4979631;28;20034;-92
2023/01/13 03:18:25;;;;;;;7.32;3.90;;;;;;;2.63;77.32;99970.25;4978791;28;20085;-93
2023/01/13 03:21:03;;;;;;;6.32;3.50;;;;;;;2.55;77.07;99978.44;4998944;28;20484;-92
2023/01/13 03:23:28;;;;;;;6.70;3.70;;;;;;;2.61;76.78;99982.94;5006901;28;20026;-93
2023/01/13 03:26:23;;;;;;;11.18;4.30;;;;;;;2.79;76.05;99982.38;4975435;28;20560;-93
2023/01/13 03:28:53;;;;;;;9.00;4.75;;;;;;;2.80;75.09;99973.34;5014482;28;20065;-92
2023/01/13 03:31:24;;;;;;;12.45;6.47;;;;;;;2.80;74.17;99962.72;4979774;28;20108;-92
2023/01/13 03:34:17;;;;;;;14.65;6.32;;;;;;;2.91;75.25;99972.78;4972895;28;20068;-92
2023/01/13 03:36:43;;;;;;;10.98;5.50;;;;;;;2.77;74.17;99947.19;4960599;28;20030;-92
2023/01/13 03:39:11;;;;;;;12.23;5.70;;;;;;;2.73;75.37;99976.00;4956803;28;20134;-92
2023/01/13 03:41:45;;;;;;;11.80;6.53;;;;;;;2.60;76.02;99955.53;4980497;28;20028;-92
2023/01/13 03:44:23;;;;;;;11.27;6.28;;;;;;;2.50;76.52;99963.09;4953705;28;20022;-92
2023/01/13 03:47:11;;;;;;;13.82;6.13;;;;;;;2.62;76.84;99981.94;4959459;28;20097;-93
2023/01/13 03:49:52;;;;;;;12.38;6.05;;;;;;;2.37;76.99;99955.09;4979255;28;20032;-93
2023/01/13 03:52:26;;;;;;;11.02;5.80;;;;;;;2.43;76.73;99970.25;4962562;28;20030;-93
2023/01/13 03:54:59;;;;;;;14.98;6.40;;;;;;;2.46;77.11;99961.03;4963571;28;20465;-92
2023/01/13 03:57:27;;;;;;;11.85;6.30;;;;;;;2.56;76.94;99972.91;4959122;28;20026;-93
2023/01/13 03:59:54;;;;;;;10.90;5.78;;;;;;;2.43;77.75;99980.88;4973746;28;20048;-93
2023/01/13 04:02:46;;;;;;;11.30;5.45;;;;;;;2.49;77.59;99992.50;4969825;28;20049;-92
2023/01/13 04:05:11;;;;;;;11.90;5.20;;;;;;;2.45;77.60;99978.84;4978576;28;20018;-93
2023/01/13 04:07:49;;;;;;;11.25;5.93;;;;;;;2.56;77.13;100009.31;4973425;28;20033;-92
2023/01/13 04:10:24;;;;;;;11.90;6.00;;;;;;;2.47;77.57;99986.59;4997838;28;20030;-93
2023/01/13 04:12:59;;;;;;;10.30;4.88;;;;;;;2.56;77.44;100009.31;4954069;28;20026;-93
2023/01/13 04:15:28;;;;;;;13.68;6.25;;;;;;;2.42;77.58;99987.19;4981120;28;20050;-93
2023/01/13 04:18:00;;;;;;;11.30;5.88;;;;;;;2.41;77.48;99994.34;4953076;28;20023;-92
2023/01/13 04:20:25;;;;;;;13.32;5.88;;;;;;;2.49;77.34;99997.84;4975251;28;20083;-93
2023/01/13 04:22:51;;;;;;;10.57;5.20;;;;;;;2.49;77.37;99990.69;4997525;28;20026;-92
2023/01/13 04:25:16;;;;;;;13.15;5.72;;;;;;;2.41;77.50;100012.13;4957600;28;20031;-93
2023/01/13 04:27:42;;;;;;;10.93;5.53;;;;;;;2.45;77.29;99996.59;4966600;28;20034;-91
2023/01/13 04:30:08;;;;;;;10.20;5.47;;;;;;;2.54;77.66;100014.00;4968039;28;20449;-93
2023/01/13 04:32:33;;;;;;;9.20;4.43;;;;;;;2.50;77.26;100000.28;4979652;28;20120;-92
2023/01/13 04:34:59;;;;;;;7.40;4.43;;;;;;;2.45;77.13;99991.28;4990889;28;20075;-93
2023/01/13 04:37:24;;;;;;;11.93;5.38;;;;;;;2.57;76.47;100009.13;4991333;28;20049;-92
2023/01/13 04:39:50;;;;;;;10.07;5.20;;;;;;;2.39;77.61;99992.91;4980542;28;20026;-92
2023/01/13 04:42:15;;;;;;;9.10;5.15;;;;;;;2.42;77.90;100009.25;4997149;28;20030;-93
2023/01/13 04:44:40;;;;;;;9.32;5.13;;;;;;;2.37;77.17;99989.63;4996248;28;20022;-92
2023/01/13 04:47:06;;;;;;;12.55;5.93;;;;;;;2.33;77.25;99983.91;4964552;28;20019;-93
2023/01/13 04:49:32;;;;;;;9.18;5.32;;;;;;;2.36;77.17;99998.63;4977834;28;20108;-93
2023/01/13 04:51:57;;;;;;;7.65;4.95;;;;;;;2.54;77.44;100014.81;4984705;28;20030;-93
2023/01/13 04:54:23;;;;;;;12.50;6.88;;;;;;;2.26;77.40;99979.56;4961045;28;20023;-93
2023/01/13 04:56:48;;;;;;;7.75;5.13;;;;;;;2.33;77.86;100014.97;4990095;28;20033;-92
2023/01/13 04:59:14;;;;;;;10.32;6.32;;;;;;;2.28;77.16;99998.78;4966330;28;20093;-93
2023/01/13 05:01:39;;;;;;;11.43;5.63;;;;;;;2.29;77.58;99992.47;4979054;28;20485;-94
2023/01/13 05:04:05;;;;;;;12.52;6.43;;;;;;;2.29;77.43;99987.97;4978651;28;20046;-94
2023/01/13 05:06:31;;;;;;;9.65;5.55;;;;;;;2.28;77.26;99988.97;4963654;28;20018;-94
2023/01/13 05:08:57;;;;;;;13.68;6.25;;;;;;;2.27;77.10;99983.88;4968816;28;20046;-94
2023/01/13 05:17:00;;;;;;;18.38;7.53;;;;;;;2.37;76.82;99981.66;4990104;28;20020;-93
2023/01/13 05:19:30;;;;;;;11.73;6.28;;;;;;;2.48;76.86;100002.34;4971089;28;20037;-94
2023/01/13 05:27:24;;;;;;;15.25;8.10;;;;;;;2.58;77.16;99999.31;4974098;28;20086;-96
2023/01/13 05:29:50;;;;;;;22.58;7.88;;;;;;;2.58;76.57;99999.31;4953127;28;20061;-94
2023/01/13 05:32:19;;;;;;;17.50;7.75;;;;;;;2.73;77.32;100018.56;4953220;28;20030;-95
2023/01/13 05:34:44;;;;;;;19.63;8.70;;;;;;;2.71;77.05;100022.44;4978888;28;20087;-93
2023/01/13 05:37:12;;;;;;;18.70;8.40;;;;;;;2.55;77.43;100000.53;4951349;28;20105;-93
2023/01/13 05:45:07;;;;;;;19.63;9.55;;;;;;;2.60;77.45;100008.72;4995344;28;20112;-94
2023/01/13 05:47:32;;;;;;;25.10;10.70;;;;;;;2.69;77.81;100003.22;4957296;28;20034;-92
2023/01/13 05:50:09;;;;;;;22.08;9.38;;;;;;;2.74;77.68;100006.91;4963905;28;20396;-93
2023/01/13 05:52:38;;;;;;;23.63;10.18;;;;;;;2.73;77.52;100015.09;4979086;28;20030;-93
2023/01/13 05:55:04;;;;;;;17.95;8.70;;;;;;;2.83;76.98;100018.19;4967902;28;20404;-95
2023/01/13 05:57:29;;;;;;;20.30;8.20;;;;;;;2.61;77.47;100013.03;4955383;28;20030;-95
2023/01/13 05:59:55;;;;;;;21.42;9.38;;;;;;;2.61;77.47;100007.72;4982727;28;20053;-94
2023/01/13 06:02:20;;;;;;;17.33;7.63;;;;;;;2.76;77.39;100012.84;4985115;28;20026;-93
2023/01/13 06:04:46;;;;;;;22.08;9.65;;;;;;;2.90;77.18;100045.59;4985024;28;20035;-93
2023/01/13 06:07:12;;;;;;;18.15;8.07;;;;;;;2.81;77.31;100028.19;4997803;28;20018;-94
2023/01/13 06:09:37;;;;;;;19.48;7.90;;;;;;;2.82;76.84;100021.84;4964756;28;20050;-93
2023/01/13 06:12:06;;;;;;;22.15;10.80;;;;;;;2.79;76.49;100017.75;4962131;28;20046;-94
2023/01/13 06:14:38;;;;;;;20.77;9.50;;;;;;;2.85;76.16;100026.78;4948712;28;20026;-92
2023/01/13 06:17:11;;;;;;;20.23;9.38;;;;;;;2.99;76.41;100040.94;4951678;28;20022;-93
2023/01/13 06:19:40;;;;;;;22.15;9.82;;;;;;;3.00;75.91;100023.94;4964366;28;20026;-94
2023/01/13 06:22:16;;;;;;;22.42;10.13;;;;;;;3.04;76.10;100033.97;4975534;28;20023;-95
2023/01/13 06:24:59;;;;;;;19.20;8.35;;;;;;;3.15;75.48;100026.41;4960339;28;20025;-96
2023/01/13 06:27:35;;;;;;;19.60;8.75;;;;;;;3.35;75.00;100026.41;5008174;28;20509;-96
2023/01/13 06:30:55;;;;;;;19.95;8.55;;;;;;;3.52;74.34;100062.22;4995714;28;20041;-96
2023/01/13 06:33:45;;;;;;;18.83;10.10;;;;;;;3.25;75.00;100056.09;5007690;28;20042;-96
2023/01/13 06:36:26;;;;;;;16.48;8.82;;;;;;;2.96;75.08;100036.00;4942626;28;20080;-96
2023/01/13 06:39:17;;;;;;;16.42;9.27;;;;;;;2.94;75.88;100033.53;4977635;28;20030;-96
2023/01/13 06:44:33;;;;;;;14.80;7.00;;;;;;;3.38;74.32;100042.81;5013886;28;20096;-96
2023/01/13 06:47:06;;;;;;;15.25;7.90;;;;;;;3.49;74.00;100038.69;4993917;28;20092;-96
2023/01/13 06:49:43;;;;;;;18.23;10.13;;;;;;;3.61;73.81;100057.50;4954668;28;20034;-95
2023/01/13 06:53:11;;;;;;;13.75;7.95;;;;;;;3.67;73.35;100026.59;5005541;28;20027;-96
2023/01/13 06:56:27;;;;;;;;;;;;;;;3.94;72.09;100057.47;4957566;29;20033;-95
2023/01/13 06:59:19;;;;;;;15.07;7.28;;;;;;;3.60;73.65;100051.38;4926068;29;19923;-96
2023/01/13 07:01:44;;;;;;;16.05;7.80;;;;;;;3.51;73.31;100039.31;4894829;29;20039;-95
2023/01/13 07:04:10;;;;;;;16.70;10.18;;;;;;;3.54;73.35;100038.88;4900939;29;20043;-95
2023/01/13 07:06:39;;;;;;;16.23;7.68;;;;;;;3.53;73.50;100053.25;4911763;29;20050;-95
2023/01/13 07:09:05;;;;;;;19.40;9.30;;;;;;;3.69;72.52;100051.97;4893650;29;20031;-95
2023/01/13 07:11:30;;;;;;;16.98;9.15;;;;;;;3.74;72.91;100056.72;4901087;29;20103;-95
2023/01/13 07:17:36;;;;;;;17.23;9.68;;;;;;;3.84;73.59;100081.09;4937897;29;20071;-96
2023/01/13 07:20:06;;;;;;;24.80;12.48;;;;;;;3.66;74.11;100047.09;4886987;29;20032;-96
2023/01/13 07:22:35;;;;;;;14.63;8.40;;;;;;;4.00;73.13;100075.28;4910060;29;20038;-96
2023/01/13 07:25:01;;;;;;;14.48;7.97;;;;;;;3.79;72.99;100043.56;4912638;29;20379;-96
2023/01/13 07:27:31;;;;;;;14.15;8.20;;;;;;;3.74;73.00;100056.72;4929896;29;20147;-95
2023/01/13 07:32:54;;;;;;;14.45;7.72;;;;;;;3.89;73.49;100077.78;4936390;29;20083;-94
2023/01/13 07:35:22;;;;;;;12.05;6.97;;;;;;;3.87;71.94;100045.22;4920973;29;20141;-93
2023/01/13 07:37:47;;;;;;;11.18;6.68;;;;;;;4.01;72.24;100057.47;4921669;28;20571;-94
2023/01/13 07:40:19;;;;;;;15.35;7.90;;;;;;;4.05;71.48;100045.38;4920502;29;20015;-96
2023/01/13 07:46:12;;;;;;;16.83;8.90;;;;;;;4.13;71.33;100061.16;4981880;28;20560;-96
2023/01/13 07:48:42;;;;;;;14.50;7.80;;;;;;;4.23;71.08;100080.19;4968229;28;20030;-94
2023/01/13 07:51:13;;;;;;;11.00;5.93;;;;;;;4.32;70.83;100080.78;4970054;28;20027;-96
2023/01/13 07:53:52;;;;;;;13.35;7.20;;;;;;;4.37;70.54;100082.81;4956055;28;20046;-96
2023/01/13 07:56:18;;;;;;;12.15;7.60;;;;;;;4.26;70.71;100081.59;4978158;28;20396;-96
2023/01/13 07:58:49;;;;;;;17.08;11.27;;;;;;;4.16;72.10;100076.69;4962703;28;20030;-96
2023/01/13 08:02:12;;;;;;;66.03;37.88;;;;;;;4.33;71.39;100093.06;5304754;23;20092;-96
2023/01/13 08:04:40;;;;;;;17.63;9.77;;;;;;;4.26;72.11;100070.94;4990601;28;20042;-96
2023/01/13 08:07:06;;;;;;;15.45;8.02;;;;;;;4.33;71.14;100071.72;4968502;28;20030;-95
2023/01/13 08:09:36;;;;;;;15.02;8.13;;;;;;;4.42;70.98;100097.16;4969384;28;20108;-92
2023/01/13 08:14:46;;;;;;;16.45;8.15;;;;;;;4.47;70.84;100087.69;4992285;28;20072;-92
2023/01/13 08:17:11;;;;;;;25.52;13.88;;;;;;;4.39;71.44;100075.41;4975478;28;20034;-93
2023/01/13 08:19:37;;;;;;;13.10;8.63;;;;;;;4.50;71.32;100080.06;4992112;28;20080;-93
2023/01/13 08:22:03;;;;;;;12.63;7.60;;;;;;;4.42;71.00;100067.81;4983504;28;20057;-92
2023/01/13 08:24:34;;;;;;;11.80;7.25;;;;;;;4.47;71.24;100096.50;4971181;28;20026;-93
2023/01/13 08:26:59;;;;;;;14.25;7.75;;;;;;;4.48;70.82;100105.31;4972674;28;20121;-96
2023/01/13 08:29:25;;;;;;;77.07;36.63;;;;;;;4.39;71.40;100083.41;4971905;28;20048;-95
2023/01/13 08:31:50;;;;;;;69.25;28.17;;;;;;;4.69;71.42;100105.06;4976069;28;20029;-95
2023/01/13 08:34:16;;;;;;;74.22;35.33;;;;;;;4.57;70.90;100074.75;4976428;28;20124;-94
2023/01/13 08:36:42;;;;;;;23.67;16.42;;;;;;;4.72;70.42;100095.81;4975657;28;20381;-95
2023/01/13 08:39:07;;;;;;;12.40;8.35;;;;;;;4.74;70.67;100093.75;4973208;28;20048;-92
2023/01/13 08:41:54;;;;;;;12.10;6.80;;;;;;;4.83;70.53;100109.28;4970359;28;20036;-96
2023/01/13 08:44:22;;;;;;;12.40;7.95;;;;;;;5.05;69.96;100120.47;4976393;28;20057;-96
2023/01/13 08:46:48;;;;;;;17.10;10.00;;;;;;;4.88;69.10;100086.47;4972582;28;20026;-93
2023/01/13 08:49:21;;;;;;;47.58;23.60;;;;;;;4.98;70.13;100113.53;4978075;28;20025;-96
2023/01/13 08:51:56;;;;;;;;;;;;;;;;;;;;;
2023/01/13 08:54:42;;;;;;;15.07;8.50;;;;;;;4.82;69.78;100102.31;4933210;28;20094;-95
2023/01/13 08:58:03;;;;;;;;;;;;;;;;;;;;;
2023/01/13 09:00:45;;;;;;;15.02;8.70;;;;;;;4.86;70.95;100097.38;4946131;28;20055;-96
2023/01/13 09:03:13;;;;;;;17.67;9.00;;;;;;;4.66;70.21;100071.59;4951231;28;20104;-93
2023/01/13 09:05:42;;;;;;;18.10;10.55;;;;;;;4.85;70.28;100093.06;4948288;28;20035;-94
2023/01/13 09:08:08;;;;;;;18.80;9.57;;;;;;;5.00;69.65;100084.75;4948533;28;20524;-92
2023/01/13 09:10:44;;;;;;;15.65;8.88;;;;;;;4.93;70.07;100057.31;4925564;28;20039;-93
2023/01/13 09:13:11;;;;;;;16.88;8.48;;;;;;;4.94;71.00;100061.59;4942509;28;20094;-93
2023/01/13 09:15:46;;;;;;;15.10;9.20;;;;;;;4.93;71.76;100063.47;4935417;28;20034;-96
2023/01/13 09:18:28;;;;;;;18.38;9.35;;;;;;;5.01;71.82;100060.53;4950631;28;20043;-96
2023/01/13 09:21:25;;;;;;;15.27;9.73;;;;;;;4.89;71.59;100045.44;4967191;28;20049;-96
2023/01/13 09:24:23;;;;;;;16.77;9.98;;;;;;;4.93;71.88;100051.97;4946684;28;20031;-96
2023/01/13 09:27:03;;;;;;;13.95;8.30;;;;;;;4.96;71.44;100071.06;4934283;28;20035;-96
2023/01/13 09:29:32;;;;;;;17.02;10.02;;;;;;;4.58;73.50;100044.34;5003968;28;20084;-95
2023/01/13 09:32:01;;;;;;;19.05;10.70;;;;;;;4.68;73.19;100075.91;4993430;28;20413;-96
2023/01/13 09:37:20;;;;;;;18.88;10.82;;;;;;;4.82;72.62;100050.81;5015393;28;20063;-95
2023/01/13 09:39:49;;;;;;;20.17;11.38;;;;;;;4.95;71.57;100047.25;4997261;28;20046;-95
2023/01/13 09:45:19;;;;;;;26.35;14.35;;;;;;;5.22;71.11;100039.88;4993722;28;20077;-95
2023/01/13 09:47:56;;;;;;;23.50;11.50;;;;;;;5.49;70.01;100061.03;5003810;28;20495;-95
2023/01/13 09:51:08;;;;;;;26.40;12.02;;;;;;;5.47;69.50;100048.69;5002361;28;20097;-94
2023/01/13 09:54:25;;;;;;;22.17;11.48;;;;;;;5.36;70.57;100060.09;5003745;28;20116;-95
2023/01/13 09:57:42;;;;;;;;;;;;;;;;;;;;;
2023/01/13 10:00:31;;;;;;;18.02;9.98;;;;;;;5.30;70.94;100041.47;5111294;23;20408;-96
2023/01/13 10:03:11;;;;;;;19.80;12.05;;;;;;;5.41;71.25;100048.75;4996231;28;20045;-96
2023/01/13 10:06:05;;;;;;;;;;;;;;;;;;;;;
2023/01/13 10:08:41;;;;;;;25.83;13.02;;;;;;;5.15;73.11;100015.91;4977920;28;20137;-96
2023/01/13 10:14:46;;;;;;;18.13;11.23;;;;;;;5.43;72.11;100033.34;5005808;28;20121;-96
2023/01/13 10:33:42;;;;;;;17.03;9.93;;;;;;;5.81;71.36;100011.84;4947078;29;20103;-94
2023/01/13 10:37:28;;;;;;;17.67;9.48;;;;;;;6.04;70.33;100018.41;4934490;29;20363;-95
2023/01/13 10:40:53;;;;;;;;;;;;;;;;;;;;;
2023/01/13 10:42:44;;;;;;;16.08;9.98;;;;;;;5.73;70.20;99988.06;4895017;29;20064;-94
2023/01/13 10:45:22;;;;;;;17.58;9.90;;;;;;;5.63;70.55;99996.59;4874861;29;20059;-96
2023/01/13 10:47:50;;;;;;;25.58;14.60;;;;;;;5.76;70.65;99992.16;4871138;29;20064;-95
2023/01/13 10:50:32;;;;;;;18.33;11.02;;;;;;;5.80;70.92;100017.41;4861007;29;20144;-96
2023/01/13 10:53:22;;;;;;;;;;;;;;;5.78;70.96;100011.44;4893573;29;20032;-96
2023/01/13 10:56:03;;;;;;;18.73;9.82;;;;;;;5.61;71.37;99987.97;4905617;29;19978;-96
2023/01/13 10:58:36;;;;;;;19.63;9.60;;;;;;;5.48;72.02;99985.44;4874983;29;20043;-96
2023/01/13 11:01:12;;;;;;;25.02;15.65;;;;;;;5.76;71.12;99998.31;4876747;29;20033;-96
2023/01/13 11:03:58;;;;;;;26.77;14.85;;;;;;;5.73;71.75;99980.06;4910424;28;20495;-96
2023/01/13 11:06:42;;;;;;;;;;;;;;;;;;;;;
2023/01/13 11:09:16;;;;;;;16.80;9.80;;;;;;;5.68;71.40;99979.88;4957935;28;20134;-96
2023/01/13 11:12:02;;;;;;;18.10;10.07;;;;;;;5.71;70.86;99971.44;4968763;28;20018;-96
2023/01/13 11:14:53;;;;;;;21.88;10.43;;;;;;;5.66;70.95;99961.44;4973842;28;20354;-96
2023/01/13 11:17:44;;;;;;;18.60;10.45;;;;;;;5.57;71.13;99968.09;4969159;28;20031;-96
2023/01/13 11:20:32;;;;;;;17.17;9.65;;;;;;;5.84;71.16;99978.50;4949937;28;20144;-95
2023/01/13 11:23:41;;;;;;;18.08;9.77;;;;;;;5.97;71.13;99973.03;4986254;28;20091;-96
2023/01/13 11:26:20;;;;;;;20.90;10.93;;;;;;;6.24;69.74;99973.53;4984161;28;20022;-96
2023/01/13 11:29:28;;;;;;;16.60;10.15;;;;;;;5.99;71.82;99946.09;4946341;29;20108;-93
2023/01/13 11:32:33;;;;;;;15.88;8.98;;;;;;;5.85;71.17;99927.50;4947451;29;20041;-95
2023/01/13 11:35:17;;;;;;;15.52;8.93;;;;;;;6.13;69.69;99960.13;4845042;29;20621;-95
2023/01/13 11:38:06;;;;;;;;;;;;;;;;;;;;;
2023/01/13 11:40:51;;;;;;;18.50;10.07;;;;;;;6.22;70.02;99940.84;4888528;29;20123;-96
2023/01/13 11:43:28;;;;;;;14.20;9.05;;;;;;;6.30;68.79;99938.91;4847355;29;20062;-96
2023/01/13 11:46:00;;;;;;;18.23;9.52;;;;;;;6.42;69.56;99945.13;4863043;29;20514;-96
2023/01/13 11:48:35;;;;;;;;;;;;;;;6.52;69.47;99968.66;4824095;29;20167;-96
2023/01/13 11:51:15;;;;;;;16.10;9.77;;;;;;;6.57;69.40;99958.91;4854799;29;19916;-96
2023/01/13 11:54:16;;;;;;;19.02;9.63;;;;;;;6.52;69.52;99952.63;4862737;29;20424;-94
2023/01/13 11:57:23;;;;;;;14.40;8.80;;;;;;;6.39;70.04;99948.25;4851475;29;20046;-93
2023/01/13 12:00:00;;;;;;;16.15;9.55;;;;;;;6.50;69.24;99944.00;4852895;29;20060;-96
2023/01/13 12:02:49;;;;;;;16.90;9.05;;;;;;;6.59;69.14;99956.81;4881101;29;20531;-94
2023/01/13 12:05:37;;;;;;;15.15;9.50;;;;;;;6.72;69.44;99945.09;4880682;29;20568;-95
2023/01/13 12:08:24;;;;;;;15.07;9.18;;;;;;;6.60;68.45;99933.53;4880766;29;20040;-95
2023/01/13 12:11:14;;;;;;;16.48;7.93;;;;;;;6.67;68.52;99927.06;4867155;29;20048;-96
2023/01/13 12:13:58;;;;;;;15.15;8.93;;;;;;;6.76;68.53;99924.03;4893342;29;20045;-96
2023/01/13 12:16:30;;;;;;;15.07;9.35;;;;;;;6.81;67.55;99919.66;4925560;29;20040;-96
2023/01/13 12:19:20;;;;;;;13.57;9.00;;;;;;;7.01;66.98;99924.66;4889178;29;20059;-96
2023/01/13 12:22:07;;;;;;;13.77;8.93;;;;;;;7.11;67.76;99928.63;4902716;29;20040;-93
2023/01/13 12:25:13;;;;;;;17.38;9.23;;;;;;;7.09;66.96;99920.84;4902851;29;20043;-95
2023/01/13 12:28:06;;;;;;;16.70;10.40;;;;;;;7.08;67.28;99936.09;4877609;29;20071;-96
2023/01/13 12:31:04;;;;;;;16.30;9.30;;;;;;;7.05;67.41;99909.75;4899890;29;20108;-96
2023/01/13 12:33:39;;;;;;;15.70;10.07;;;;;;;7.25;67.24;99938.09;4876203;29;20602;-96
2023/01/13 12:36:09;;;;;;;12.93;7.60;;;;;;;7.20;66.30;99920.03;4902233;29;20032;-96
2023/01/13 12:39:16;;;;;;;13.48;8.18;;;;;;;7.38;66.49;99947.75;4903457;29;20500;-96
2023/01/13 12:45:10;;;;;;;14.80;8.43;;;;;;;7.34;66.72;99942.03;4898749;29;20097;-96
2023/01/13 12:48:01;;;;;;;16.20;8.80;;;;;;;7.20;66.25;99928.06;4884043;29;20086;-96
2023/01/13 12:50:33;;;;;;;15.30;9.32;;;;;;;7.28;66.69;99945.63;4870218;29;20036;-96
2023/01/13 12:53:31;;;;;;;;;;;;;;;;;;;;;
2023/01/13 12:56:37;;;;;;;16.83;9.93;;;;;;;7.14;67.90;99945.06;4863328;29;20101;-95
2023/01/13 12:59:29;;;;;;;15.38;9.13;;;;;;;7.14;67.62;99947.75;4902404;29;20192;-96
2023/01/13 13:02:17;;;;;;;18.58;10.35;;;;;;;7.00;68.44;99938.31;4908310;29;20158;-96
2023/01/13 13:04:53;;;;;;;16.85;9.05;;;;;;;6.95;68.32;99924.78;4895763;29;20132;-96
2023/01/13 13:17:33;;;;;;;14.85;8.10;;;;;;;7.14;66.95;99953.09;4900816;29;20047;-92
2023/01/13 13:20:02;;;;;;;17.13;8.93;;;;;;;7.01;67.77;99924.66;4885806;29;20033;-95
2023/01/13 13:23:35;;;;;;;15.85;9.85;;;;;;;6.97;67.34;99912.81;4859024;29;20487;-96
2023/01/13 13:26:20;;;;;;;12.43;7.95;;;;;;;7.20;66.54;99954.84;4845633;29;20042;-95
2023/01/13 13:37:15;;;;;;;15.73;8.75;;;;;;;7.15;67.82;99953.91;4971791;28;20059;-96
2023/01/13 13:48:38;;;;;;;14.25;8.63;;;;;;;7.13;67.68;99943.44;4944160;28;20045;-93
2023/01/13 13:51:23;;;;;;;15.25;9.38;;;;;;;7.22;67.93;99959.97;4926396;28;20094;-96
2023/01/13 13:53:53;;;;;;;17.58;8.95;;;;;;;7.00;67.41;99931.06;4921529;28;20026;-96
2023/01/13 13:56:22;;;;;;;23.45;10.80;;;;;;;6.98;68.22;99941.19;4922912;28;20023;-96
2023/01/13 13:59:18;;;;;;;15.43;9.90;;;;;;;6.79;67.91;99936.97;4936546;28;20030;-96
2023/01/13 14:02:47;;;;;;;16.70;9.57;;;;;;;6.69;68.85;99940.22;4960648;28;20102;-96
2023/01/13 14:12:08;;;;;;;20.38;11.18;;;;;;;6.74;68.81;99961.72;5045705;23;20087;-96